createdAt,value
2023-05-18T00:00:19.595Z,10.02
2023-05-18T00:01:19.530Z,9.99
2023-05-18T00:02:19.453Z,9.97
2023-05-18T00:03:19.522Z,9.94
2023-05-18T00:04:19.486Z,9.94
2023-05-18T00:05:19.433Z,9.91
2023-05-18T00:06:19.385Z,9.92
2023-05-18T00:07:19.380Z,9.92
2023-05-18T00:08:19.397Z,9.91
2023-05-18T00:09:19.363Z,9.91
2023-05-18T00:10:19.435Z,9.89
2023-05-18T00:11:19.368Z,9.87
2023-05-18T00:12:19.337Z,9.87
2023-05-18T00:13:19.345Z,9.86
2023-05-18T00:14:19.320Z,9.84
2023-05-18T00:15:19.289Z,9.83
2023-05-18T00:16:19.387Z,9.82
2023-05-18T00:17:19.338Z,9.77
2023-05-18T00:18:19.247Z,9.77
2023-05-18T00:19:19.380Z,9.76
2023-05-18T00:20:19.230Z,9.76
2023-05-18T00:21:19.225Z,9.74
2023-05-18T00:22:19.304Z,9.72
2023-05-18T00:23:19.194Z,9.69
2023-05-18T00:24:19.202Z,9.72
2023-05-18T00:25:19.179Z,9.68
2023-05-18T00:26:19.169Z,9.69
2023-05-18T00:27:19.137Z,9.68
2023-05-18T00:28:19.169Z,9.68
2023-05-18T00:29:19.125Z,9.66
2023-05-18T00:30:19.126Z,9.66
2023-05-18T00:31:19.131Z,9.65
2023-05-18T00:32:19.144Z,9.64
2023-05-18T00:33:19.097Z,9.61
2023-05-18T00:34:21.015Z,9.61
2023-05-18T00:35:19.069Z,9.61
2023-05-18T00:36:19.056Z,9.59
2023-05-18T00:37:19.069Z,9.59
2023-05-18T00:38:40.038Z,9.58
2023-05-18T00:39:19.065Z,9.55
2023-05-18T00:40:19.015Z,9.54
2023-05-18T00:41:19.007Z,9.54
2023-05-18T00:42:18.988Z,9.50
2023-05-18T00:43:18.983Z,9.50
2023-05-18T00:44:19.005Z,9.48
2023-05-18T00:45:18.985Z,9.48
2023-05-18T00:46:19.045Z,9.46
2023-05-18T00:47:18.962Z,9.43
2023-05-18T00:48:18.966Z,9.43
2023-05-18T00:49:18.921Z,9.43
2023-05-18T00:50:18.906Z,9.43
2023-05-18T00:51:18.896Z,9.40
2023-05-18T00:52:18.912Z,9.39
2023-05-18T00:53:18.888Z,9.36
2023-05-18T00:54:18.857Z,9.32
2023-05-18T00:55:18.850Z,9.32
2023-05-18T00:56:18.837Z,9.29
2023-05-18T00:57:18.864Z,9.23
2023-05-18T00:58:18.835Z,9.21
2023-05-18T00:59:18.840Z,9.18
2023-05-18T01:00:18.788Z,9.16
2023-05-18T01:01:18.842Z,9.18
2023-05-18T01:02:18.813Z,9.18
2023-05-18T01:03:18.790Z,9.16
2023-05-18T01:04:18.773Z,9.16
2023-05-18T01:05:20.736Z,9.13
2023-05-18T01:06:18.727Z,9.10
2023-05-18T01:07:18.729Z,9.08
2023-05-18T01:08:18.726Z,9.06
2023-05-18T01:09:18.717Z,9.08
2023-05-18T01:10:18.707Z,9.06
2023-05-18T01:11:18.744Z,9.06
2023-05-18T01:12:18.648Z,9.10
2023-05-18T01:13:18.786Z,9.10
2023-05-18T01:14:18.674Z,9.08
2023-05-18T01:15:18.650Z,9.08
2023-05-18T01:16:18.609Z,9.08
2023-05-18T01:17:18.844Z,9.08
2023-05-18T01:18:18.588Z,9.08
2023-05-18T01:19:18.704Z,9.04
2023-05-18T01:20:18.611Z,9.02
2023-05-18T01:21:18.552Z,8.99
2023-05-18T01:22:18.579Z,8.95
2023-05-18T01:23:18.527Z,8.92
2023-05-18T01:24:18.522Z,8.88
2023-05-18T01:25:18.528Z,8.85
2023-05-18T01:26:18.494Z,8.84
2023-05-18T01:27:18.552Z,8.81
2023-05-18T01:28:18.502Z,8.79
2023-05-18T01:29:18.462Z,8.78
2023-05-18T01:30:18.515Z,8.71
2023-05-18T01:31:18.605Z,8.66
2023-05-18T01:32:18.434Z,8.69
2023-05-18T01:33:18.471Z,8.66
2023-05-18T01:34:18.441Z,8.66
2023-05-18T01:35:18.410Z,8.64
2023-05-18T01:36:18.390Z,8.66
2023-05-18T01:37:18.375Z,8.64
2023-05-18T01:38:18.815Z,8.60
2023-05-18T01:39:18.354Z,8.55
2023-05-18T01:40:18.416Z,8.53
2023-05-18T01:41:19.830Z,8.52
2023-05-18T01:42:18.670Z,8.51
2023-05-18T01:43:18.303Z,8.51
2023-05-18T01:44:18.612Z,8.51
2023-05-18T01:45:18.276Z,8.49
2023-05-18T01:46:18.317Z,8.51
2023-05-18T01:47:18.251Z,8.46
2023-05-18T01:48:18.488Z,8.44
2023-05-18T01:49:18.243Z,8.38
2023-05-18T01:50:18.517Z,8.36
2023-05-18T01:51:18.247Z,8.34
2023-05-18T01:52:18.221Z,8.30
2023-05-18T01:53:18.197Z,8.31
2023-05-18T01:54:18.186Z,8.28
2023-05-18T01:55:18.211Z,8.24
2023-05-18T01:56:19.033Z,8.24
2023-05-18T01:57:18.176Z,8.24
2023-05-18T01:58:18.142Z,8.26
2023-05-18T01:59:18.137Z,8.26
2023-05-18T02:00:18.154Z,8.23
2023-05-18T02:01:18.112Z,8.19
2023-05-18T02:02:20.121Z,8.20
2023-05-18T02:03:18.248Z,8.20
2023-05-18T02:04:18.177Z,8.23
2023-05-18T02:05:18.254Z,8.23
2023-05-18T02:06:18.067Z,8.23
2023-05-18T02:07:20.033Z,8.24
2023-05-18T02:08:18.033Z,8.23
2023-05-18T02:09:18.000Z,8.23
2023-05-18T02:10:18.021Z,8.24
2023-05-18T02:11:18.334Z,8.26
2023-05-18T02:12:22.242Z,8.24
2023-05-18T02:13:17.960Z,8.24
2023-05-18T02:14:18.456Z,8.26
2023-05-18T02:15:18.213Z,8.23
2023-05-18T02:16:18.831Z,8.23
2023-05-18T02:17:19.956Z,8.19
2023-05-18T02:18:19.884Z,8.19
2023-05-18T02:19:17.946Z,8.16
2023-05-18T02:20:17.889Z,8.18
2023-05-18T02:21:19.854Z,8.18
2023-05-18T02:22:17.889Z,8.19
2023-05-18T02:23:17.852Z,8.23
2023-05-18T02:24:17.856Z,8.26
2023-05-18T02:25:17.881Z,8.27
2023-05-18T02:26:18.153Z,8.28
2023-05-18T02:27:17.796Z,8.27
2023-05-18T02:28:17.874Z,8.28
2023-05-18T02:29:17.772Z,8.27
2023-05-18T02:30:17.799Z,8.27
2023-05-18T02:31:17.801Z,8.26
2023-05-18T02:32:17.783Z,8.27
2023-05-18T02:33:17.809Z,8.27
2023-05-18T02:34:17.766Z,8.28
2023-05-18T02:35:17.758Z,8.27
2023-05-18T02:36:17.728Z,8.27
2023-05-18T02:37:17.687Z,8.28
2023-05-18T02:38:17.764Z,8.28
2023-05-18T02:39:17.683Z,8.27
2023-05-18T02:40:18.617Z,8.28
2023-05-18T02:41:18.466Z,8.27
2023-05-18T02:42:17.684Z,8.26
2023-05-18T02:43:19.602Z,8.26
2023-05-18T02:44:17.624Z,8.23
2023-05-18T02:45:18.459Z,8.23
2023-05-18T02:46:19.651Z,8.23
2023-05-18T02:47:17.588Z,8.19
2023-05-18T02:48:18.382Z,8.16
2023-05-18T02:49:17.611Z,8.13
2023-05-18T02:50:17.890Z,8.13
2023-05-18T02:51:17.550Z,8.15
2023-05-18T02:52:17.572Z,8.16
2023-05-18T02:53:17.562Z,8.16
2023-05-18T02:54:19.503Z,8.18
2023-05-18T02:55:17.521Z,8.13
2023-05-18T02:56:17.590Z,8.13
2023-05-18T02:57:17.469Z,8.13
2023-05-18T02:58:18.310Z,8.13
2023-05-18T02:59:17.905Z,8.13
2023-05-18T03:00:17.437Z,8.15
2023-05-18T03:01:17.580Z,8.16
2023-05-18T03:02:17.498Z,8.15
2023-05-18T03:03:17.582Z,8.15
2023-05-18T03:04:17.417Z,8.13
2023-05-18T03:05:19.348Z,8.13
2023-05-18T03:06:18.236Z,8.15
2023-05-18T03:07:17.360Z,8.15
2023-05-18T03:08:17.357Z,8.13
2023-05-18T03:09:17.338Z,8.13
2023-05-18T03:10:17.326Z,8.12
2023-05-18T03:11:17.329Z,8.13
2023-05-18T03:12:17.390Z,8.13
2023-05-18T03:13:19.265Z,8.13
2023-05-18T03:14:19.277Z,8.13
2023-05-18T03:15:17.376Z,8.13
2023-05-18T03:16:19.262Z,8.13
2023-05-18T03:17:17.470Z,8.12
2023-05-18T03:18:17.252Z,8.12
2023-05-18T03:19:17.324Z,8.12
2023-05-18T03:20:17.236Z,8.13
2023-05-18T03:21:17.205Z,8.12
2023-05-18T03:22:17.998Z,8.10
2023-05-18T03:23:17.187Z,8.10
2023-05-18T03:24:19.160Z,8.10
2023-05-18T03:25:17.200Z,8.08
2023-05-18T03:26:19.138Z,8.08
2023-05-18T03:27:17.144Z,8.03
2023-05-18T03:28:17.171Z,8.05
2023-05-18T03:29:17.150Z,8.03
2023-05-18T03:30:17.127Z,8.05
2023-05-18T03:31:17.132Z,8.01
2023-05-18T03:32:17.124Z,7.98
2023-05-18T03:33:17.320Z,7.95
2023-05-18T03:34:17.073Z,7.94
2023-05-18T03:35:19.027Z,7.95
2023-05-18T03:36:17.093Z,7.95
2023-05-18T03:37:17.046Z,7.97
2023-05-18T03:38:17.088Z,7.95
2023-05-18T03:39:17.012Z,7.94
2023-05-18T03:40:17.050Z,7.95
2023-05-18T03:41:16.989Z,7.94
2023-05-18T03:42:16.994Z,7.91
2023-05-18T03:43:16.981Z,7.91
2023-05-18T03:44:17.169Z,7.91
2023-05-18T03:45:16.955Z,7.91
2023-05-18T03:46:17.265Z,7.91
2023-05-18T03:47:17.070Z,7.91
2023-05-18T03:48:16.934Z,7.94
2023-05-18T03:49:17.200Z,7.93
2023-05-18T03:50:18.408Z,7.93
2023-05-18T03:51:16.897Z,7.93
2023-05-18T03:52:17.680Z,7.91
2023-05-18T03:53:18.820Z,7.93
2023-05-18T03:54:18.825Z,7.93
2023-05-18T03:55:17.688Z,7.93
2023-05-18T03:56:16.881Z,7.93
2023-05-18T03:57:16.833Z,7.93
2023-05-18T03:58:16.834Z,7.93
2023-05-18T03:59:16.848Z,7.91
2023-05-18T04:00:16.771Z,7.93
2023-05-18T04:01:16.768Z,7.91
2023-05-18T04:02:16.804Z,7.90
2023-05-18T04:03:16.837Z,7.90
2023-05-18T04:04:16.805Z,7.90
2023-05-18T04:05:17.510Z,7.90
2023-05-18T04:06:16.855Z,7.91
2023-05-18T04:07:17.520Z,7.91
2023-05-18T04:08:16.906Z,7.91
2023-05-18T04:09:16.676Z,7.94
2023-05-18T04:10:16.841Z,7.98
2023-05-18T04:11:16.661Z,8.00
2023-05-18T04:12:17.625Z,8.01
2023-05-18T04:13:18.631Z,8.03
2023-05-18T04:14:17.441Z,8.03
2023-05-18T04:15:16.757Z,8.01
2023-05-18T04:16:18.608Z,8.03
2023-05-18T04:17:16.602Z,8.05
2023-05-18T04:18:16.608Z,8.03
2023-05-18T04:19:16.601Z,8.06
2023-05-18T04:20:16.609Z,8.08
2023-05-18T04:21:18.526Z,8.09
2023-05-18T04:22:18.527Z,8.12
2023-05-18T04:23:16.565Z,8.13
2023-05-18T04:24:16.578Z,8.16
2023-05-18T04:25:16.574Z,8.18
2023-05-18T04:26:18.063Z,8.19
2023-05-18T04:27:16.486Z,8.23
2023-05-18T04:28:18.946Z,8.23
2023-05-18T04:29:16.454Z,8.23
2023-05-18T04:30:16.601Z,8.24
2023-05-18T04:31:17.285Z,8.26
2023-05-18T04:32:18.620Z,8.27
2023-05-18T04:33:16.529Z,8.28
2023-05-18T04:34:16.436Z,8.30
2023-05-18T04:35:16.538Z,8.30
2023-05-18T04:36:16.383Z,8.30
2023-05-18T04:37:16.455Z,8.30
2023-05-18T04:38:16.405Z,8.33
2023-05-18T04:39:16.331Z,8.31
2023-05-18T04:40:16.657Z,8.34
2023-05-18T04:41:16.333Z,8.34
2023-05-18T04:42:16.298Z,8.33
2023-05-18T04:43:16.314Z,8.36
2023-05-18T04:44:16.288Z,8.36
2023-05-18T04:45:16.277Z,8.37
2023-05-18T04:46:17.181Z,8.36
2023-05-18T04:47:16.273Z,8.37
2023-05-18T04:48:18.210Z,8.37
2023-05-18T04:49:16.277Z,8.38
2023-05-18T04:50:16.250Z,8.41
2023-05-18T04:51:16.637Z,8.42
2023-05-18T04:52:16.218Z,8.42
2023-05-18T04:53:16.364Z,8.45
2023-05-18T04:54:16.254Z,8.46
2023-05-18T04:55:18.116Z,8.48
2023-05-18T04:56:16.176Z,8.51
2023-05-18T04:57:16.227Z,8.52
2023-05-18T04:58:16.185Z,8.55
2023-05-18T04:59:16.116Z,8.55
2023-05-18T05:00:18.086Z,8.56
2023-05-18T05:01:16.143Z,8.55
2023-05-18T05:02:16.896Z,8.58
2023-05-18T05:03:16.261Z,8.58
2023-05-18T05:04:18.014Z,8.60
2023-05-18T05:05:16.865Z,8.60
2023-05-18T05:06:18.000Z,8.60
2023-05-18T05:07:16.876Z,8.63
2023-05-18T05:08:16.088Z,8.64
2023-05-18T05:09:16.026Z,8.64
2023-05-18T05:10:17.970Z,8.66
2023-05-18T05:11:17.926Z,8.66
2023-05-18T05:12:15.976Z,8.66
2023-05-18T05:13:16.033Z,8.67
2023-05-18T05:14:17.915Z,8.70
2023-05-18T05:15:15.942Z,8.73
2023-05-18T05:16:16.259Z,8.74
2023-05-18T05:17:15.980Z,8.79
2023-05-18T05:18:16.724Z,8.79
2023-05-18T05:19:17.873Z,8.81
2023-05-18T05:20:17.844Z,8.82
2023-05-18T05:21:15.943Z,8.84
2023-05-18T05:22:16.131Z,8.84
2023-05-18T05:23:17.871Z,8.87
2023-05-18T05:24:16.633Z,8.88
2023-05-18T05:25:17.891Z,8.89
2023-05-18T05:26:16.632Z,8.91
2023-05-18T05:27:15.854Z,8.94
2023-05-18T05:28:15.801Z,8.95
2023-05-18T05:29:15.794Z,8.97
2023-05-18T05:30:17.741Z,8.97
2023-05-18T05:31:16.292Z,9.00
2023-05-18T05:32:15.952Z,9.04
2023-05-18T05:33:15.834Z,9.06
2023-05-18T05:34:17.682Z,9.10
2023-05-18T05:35:17.650Z,9.11
2023-05-18T05:36:15.678Z,9.14
2023-05-18T05:37:15.762Z,9.14
2023-05-18T05:38:17.645Z,9.14
2023-05-18T05:39:17.644Z,9.19
2023-05-18T05:40:17.635Z,9.21
2023-05-18T05:41:15.686Z,9.25
2023-05-18T05:42:15.622Z,9.29
2023-05-18T05:43:17.209Z,9.32
2023-05-18T05:44:15.605Z,9.34
2023-05-18T05:45:15.612Z,9.37
2023-05-18T05:46:15.864Z,9.40
2023-05-18T05:47:15.910Z,9.43
2023-05-18T05:48:15.601Z,9.41
2023-05-18T05:49:15.589Z,9.46
2023-05-18T05:50:15.556Z,9.47
2023-05-18T05:51:15.606Z,9.48
2023-05-18T05:52:15.538Z,9.51
2023-05-18T05:53:15.873Z,9.54
2023-05-18T05:54:15.575Z,9.55
2023-05-18T05:55:17.447Z,9.59
2023-05-18T05:56:15.501Z,9.61
2023-05-18T05:57:15.497Z,9.64
2023-05-18T05:58:15.516Z,9.65
2023-05-18T05:59:15.434Z,9.66
2023-05-18T06:00:15.421Z,9.68
2023-05-18T06:01:15.520Z,9.69
2023-05-18T06:02:15.519Z,9.74
2023-05-18T06:03:15.461Z,9.74
2023-05-18T06:04:15.418Z,9.77
2023-05-18T06:05:15.461Z,9.80
2023-05-18T06:06:17.322Z,9.83
2023-05-18T06:07:15.397Z,9.83
2023-05-18T06:08:15.342Z,9.84
2023-05-18T06:09:15.332Z,9.87
2023-05-18T06:10:15.313Z,9.91
2023-05-18T06:11:16.151Z,9.92
2023-05-18T06:12:15.433Z,9.92
2023-05-18T06:13:15.273Z,9.94
2023-05-18T06:14:17.344Z,9.97
2023-05-18T06:15:15.264Z,10.01
2023-05-18T06:16:15.295Z,10.04
2023-05-18T06:17:15.351Z,10.07
2023-05-18T06:18:15.252Z,10.12
2023-05-18T06:19:15.334Z,10.13
2023-05-18T06:20:15.234Z,10.17
2023-05-18T06:21:15.207Z,10.20
2023-05-18T06:22:15.193Z,10.25
2023-05-18T06:23:15.213Z,10.28
2023-05-18T06:24:15.155Z,10.30
2023-05-18T06:25:15.169Z,10.33
2023-05-18T06:26:15.161Z,10.34
2023-05-18T06:27:15.201Z,10.34
2023-05-18T06:28:15.101Z,10.37
2023-05-18T06:29:15.094Z,10.38
2023-05-18T06:30:15.116Z,10.41
2023-05-18T06:31:15.078Z,10.42
2023-05-18T06:32:15.157Z,10.44
2023-05-18T06:33:15.067Z,10.46
2023-05-18T06:34:15.051Z,10.48
2023-05-18T06:35:15.052Z,10.51
2023-05-18T06:36:15.019Z,10.54
2023-05-18T06:37:15.018Z,10.56
2023-05-18T06:38:15.006Z,10.57
2023-05-18T06:39:14.998Z,10.59
2023-05-18T06:40:14.975Z,10.60
2023-05-18T06:41:14.991Z,10.61
2023-05-18T06:42:14.980Z,10.64
2023-05-18T06:43:14.955Z,10.69
2023-05-18T06:44:14.950Z,10.69
2023-05-18T06:45:14.937Z,10.74
2023-05-18T06:46:14.960Z,10.76
2023-05-18T06:47:14.920Z,10.79
2023-05-18T06:48:14.886Z,10.82
2023-05-18T06:49:15.128Z,10.86
2023-05-18T06:50:14.973Z,10.90
2023-05-18T06:51:14.914Z,10.93
2023-05-18T06:52:14.856Z,10.94
2023-05-18T06:53:14.991Z,10.99
2023-05-18T06:54:14.903Z,11.02
2023-05-18T06:55:16.447Z,11.05
2023-05-18T06:56:14.827Z,11.10
2023-05-18T06:57:14.811Z,11.11
2023-05-18T06:58:14.786Z,11.17
2023-05-18T06:59:14.842Z,11.18
2023-05-18T07:00:14.757Z,11.19
2023-05-18T07:01:14.794Z,11.23
2023-05-18T07:02:14.771Z,11.25
2023-05-18T07:03:14.764Z,11.29
2023-05-18T07:04:14.716Z,11.32
2023-05-18T07:05:14.714Z,11.32
2023-05-18T07:06:14.684Z,11.36
2023-05-18T07:07:14.695Z,11.40
2023-05-18T07:08:14.722Z,11.43
2023-05-18T07:09:14.697Z,11.47
2023-05-18T07:10:14.625Z,11.51
2023-05-18T07:11:14.634Z,11.52
2023-05-18T07:12:14.618Z,11.57
2023-05-18T07:13:14.617Z,11.62
2023-05-18T07:14:14.590Z,11.66
2023-05-18T07:15:14.617Z,11.68
2023-05-18T07:16:14.619Z,11.72
2023-05-18T07:17:14.628Z,11.77
2023-05-18T07:18:14.616Z,11.81
2023-05-18T07:19:14.645Z,11.86
2023-05-18T07:20:14.533Z,11.87
2023-05-18T07:21:14.530Z,11.91
2023-05-18T07:22:14.532Z,11.94
2023-05-18T07:23:14.513Z,11.95
2023-05-18T07:24:14.491Z,11.95
2023-05-18T07:25:14.477Z,11.99
2023-05-18T07:26:15.926Z,12.00
2023-05-18T07:27:14.477Z,12.04
2023-05-18T07:28:14.472Z,12.07
2023-05-18T07:29:14.430Z,12.12
2023-05-18T07:30:14.429Z,12.15
2023-05-18T07:31:15.952Z,12.18
2023-05-18T07:32:14.389Z,12.21
2023-05-18T07:33:14.767Z,12.25
2023-05-18T07:34:14.407Z,12.25
2023-05-18T07:35:14.367Z,12.28
2023-05-18T07:36:15.839Z,12.32
2023-05-18T07:37:16.325Z,12.36
2023-05-18T07:38:14.323Z,12.39
2023-05-18T07:39:14.371Z,12.40
2023-05-18T07:40:14.296Z,12.43
2023-05-18T07:41:14.309Z,12.45
2023-05-18T07:42:14.284Z,12.47
2023-05-18T07:43:14.286Z,12.49
2023-05-18T07:44:14.258Z,12.50
2023-05-18T07:45:14.281Z,12.55
2023-05-18T07:46:14.260Z,12.58
2023-05-18T07:47:15.190Z,12.61
2023-05-18T07:48:14.294Z,12.65
2023-05-18T07:49:14.209Z,12.67
2023-05-18T07:50:14.210Z,12.72
2023-05-18T07:51:14.213Z,12.75
2023-05-18T07:52:14.182Z,12.75
2023-05-18T07:53:14.208Z,12.75
2023-05-18T07:54:14.145Z,12.76
2023-05-18T07:55:14.146Z,12.80
2023-05-18T07:56:14.127Z,12.82
2023-05-18T07:57:14.114Z,12.83
2023-05-18T07:58:14.087Z,12.85
2023-05-18T07:59:14.163Z,12.87
2023-05-18T08:00:14.069Z,12.91
2023-05-18T08:01:14.069Z,12.95
2023-05-18T08:02:15.587Z,12.98
2023-05-18T08:03:14.119Z,13.00
2023-05-18T08:04:14.193Z,13.03
2023-05-18T08:05:14.021Z,13.08
2023-05-18T08:06:14.033Z,13.11
2023-05-18T08:07:14.051Z,13.13
2023-05-18T08:08:14.025Z,13.18
2023-05-18T08:09:14.064Z,13.22
2023-05-18T08:10:14.058Z,13.27
2023-05-18T08:11:13.953Z,13.31
2023-05-18T08:12:13.989Z,13.37
2023-05-18T08:13:13.927Z,13.41
2023-05-18T08:14:13.941Z,13.42
2023-05-18T08:15:14.220Z,13.46
2023-05-18T08:16:13.934Z,13.49
2023-05-18T08:17:13.970Z,13.52
2023-05-18T08:18:14.008Z,13.56
2023-05-18T08:19:13.909Z,13.62
2023-05-18T08:20:13.918Z,13.67
2023-05-18T08:21:13.845Z,13.72
2023-05-18T08:22:15.295Z,13.75
2023-05-18T08:23:13.920Z,13.78
2023-05-18T08:24:13.831Z,13.81
2023-05-18T08:25:13.853Z,13.85
2023-05-18T08:26:14.213Z,13.87
2023-05-18T08:27:13.796Z,13.89
2023-05-18T08:28:13.755Z,13.92
2023-05-18T08:29:13.760Z,13.95
2023-05-18T08:30:13.767Z,13.99
2023-05-18T08:31:13.727Z,14.03
2023-05-18T08:32:13.731Z,14.08
2023-05-18T08:33:15.242Z,14.11
2023-05-18T08:34:13.731Z,14.11
2023-05-18T08:35:13.703Z,14.11
2023-05-18T08:36:13.690Z,14.12
2023-05-18T08:37:13.659Z,14.17
2023-05-18T08:38:15.292Z,14.22
2023-05-18T08:39:13.623Z,14.25
2023-05-18T08:40:13.639Z,14.28
2023-05-18T08:41:13.645Z,14.32
2023-05-18T08:42:13.597Z,14.33
2023-05-18T08:43:13.622Z,14.33
2023-05-18T08:44:13.577Z,14.32
2023-05-18T08:45:13.642Z,14.33
2023-05-18T08:46:13.577Z,14.32
2023-05-18T08:47:13.568Z,14.32
2023-05-18T08:48:13.685Z,14.35
2023-05-18T08:49:13.594Z,14.36
2023-05-18T08:50:13.555Z,14.40
2023-05-18T08:51:13.560Z,14.43
2023-05-18T08:52:13.495Z,14.43
2023-05-18T08:53:13.511Z,14.44
2023-05-18T08:54:13.552Z,14.45
2023-05-18T08:55:13.458Z,14.44
2023-05-18T08:56:13.472Z,14.43
2023-05-18T08:57:13.482Z,14.45
2023-05-18T08:58:13.442Z,14.45
2023-05-18T08:59:13.470Z,14.48
2023-05-18T09:00:13.421Z,14.50
2023-05-18T09:01:13.421Z,14.51
2023-05-18T09:02:13.390Z,14.54
2023-05-18T09:03:13.424Z,14.59
2023-05-18T09:04:14.839Z,14.63
2023-05-18T09:05:13.481Z,14.69
2023-05-18T09:06:13.368Z,14.72
2023-05-18T09:07:13.324Z,14.73
2023-05-18T09:08:13.307Z,14.79
2023-05-18T09:09:15.339Z,14.82
2023-05-18T09:10:13.576Z,14.86
2023-05-18T09:11:13.320Z,14.91
2023-05-18T09:12:13.308Z,14.94
2023-05-18T09:13:13.306Z,14.99
2023-05-18T09:14:13.313Z,15.00
2023-05-18T09:15:14.073Z,14.99
2023-05-18T09:16:13.246Z,15.00
2023-05-18T09:17:13.312Z,15.02
2023-05-18T09:18:13.300Z,15.03
2023-05-18T09:19:13.296Z,15.04
2023-05-18T09:20:13.195Z,15.07
2023-05-18T09:21:13.194Z,15.09
2023-05-18T09:22:13.159Z,15.09
2023-05-18T09:23:13.428Z,15.10
2023-05-18T09:24:15.068Z,15.14
2023-05-18T09:25:13.132Z,15.15
2023-05-18T09:26:13.119Z,15.17
2023-05-18T09:27:13.098Z,15.19
2023-05-18T09:28:13.095Z,15.22
2023-05-18T09:29:13.117Z,15.22
2023-05-18T09:30:13.060Z,15.21
2023-05-18T09:31:13.118Z,15.22
2023-05-18T09:32:13.047Z,15.19
2023-05-18T09:33:13.582Z,15.19
2023-05-18T09:34:13.043Z,15.18
2023-05-18T09:35:13.031Z,15.19
2023-05-18T09:36:12.990Z,15.21
2023-05-18T09:37:12.993Z,15.25
2023-05-18T09:38:14.941Z,15.29
2023-05-18T09:39:13.014Z,15.35
2023-05-18T09:40:12.969Z,15.37
2023-05-18T09:41:12.958Z,15.42
2023-05-18T09:42:12.931Z,15.44
2023-05-18T09:43:12.913Z,15.46
2023-05-18T09:44:12.943Z,15.46
2023-05-18T09:45:12.921Z,15.47
2023-05-18T09:46:14.325Z,15.49
2023-05-18T09:47:13.214Z,15.51
2023-05-18T09:48:12.944Z,15.54
2023-05-18T09:49:12.842Z,15.57
2023-05-18T09:50:14.352Z,15.59
2023-05-18T09:51:12.850Z,15.61
2023-05-18T09:52:12.818Z,15.67
2023-05-18T09:53:14.810Z,15.72
2023-05-18T09:54:12.801Z,15.76
2023-05-18T09:55:14.801Z,15.79
2023-05-18T09:56:12.882Z,15.82
2023-05-18T09:57:12.763Z,15.84
2023-05-18T09:58:12.907Z,15.88
2023-05-18T09:59:12.770Z,15.94
2023-05-18T10:00:12.801Z,15.97
2023-05-18T10:01:12.758Z,15.97
2023-05-18T10:02:12.738Z,15.95
2023-05-18T10:03:13.654Z,15.97
2023-05-18T10:04:12.761Z,15.98
2023-05-18T10:05:12.670Z,16.02
2023-05-18T10:06:12.646Z,16.09
2023-05-18T10:07:12.637Z,16.12
2023-05-18T10:08:13.001Z,16.13
2023-05-18T10:09:13.068Z,16.16
2023-05-18T10:10:12.625Z,16.20
2023-05-18T10:11:12.601Z,16.24
2023-05-18T10:12:12.596Z,16.26
2023-05-18T10:13:12.595Z,16.31
2023-05-18T10:14:12.593Z,16.32
2023-05-18T10:15:12.576Z,16.31
2023-05-18T10:16:12.591Z,16.29
2023-05-18T10:17:15.518Z,16.32
2023-05-18T10:18:12.551Z,16.32
2023-05-18T10:19:12.585Z,16.33
2023-05-18T10:20:12.679Z,16.39
2023-05-18T10:21:14.014Z,16.42
2023-05-18T10:22:12.516Z,16.43
2023-05-18T10:23:12.482Z,16.49
2023-05-18T10:24:14.431Z,16.54
2023-05-18T10:25:13.289Z,16.57
2023-05-18T10:26:12.476Z,16.58
2023-05-18T10:27:12.454Z,16.60
2023-05-18T10:28:12.422Z,16.64
2023-05-18T10:29:12.410Z,16.65
2023-05-18T10:30:12.482Z,16.61
2023-05-18T10:31:12.519Z,16.66
2023-05-18T10:32:12.377Z,16.68
2023-05-18T10:33:24.678Z,16.72
2023-05-18T10:34:14.305Z,16.78
2023-05-18T10:35:12.324Z,16.79
2023-05-18T10:36:14.306Z,16.83
2023-05-18T10:37:12.456Z,16.84
2023-05-18T10:38:12.302Z,16.86
2023-05-18T10:39:14.255Z,16.89
2023-05-18T10:40:14.248Z,16.90
2023-05-18T10:41:12.323Z,16.94
2023-05-18T10:42:12.304Z,16.97
2023-05-18T10:43:12.278Z,17.01
2023-05-18T10:44:12.272Z,17.05
2023-05-18T10:45:12.242Z,17.05
2023-05-18T10:46:12.297Z,17.06
2023-05-18T10:47:12.463Z,17.09
2023-05-18T10:48:12.541Z,17.11
2023-05-18T10:49:12.196Z,17.12
2023-05-18T10:50:12.173Z,17.12
2023-05-18T10:51:12.152Z,17.14
2023-05-18T10:52:12.170Z,17.14
2023-05-18T10:53:12.238Z,17.16
2023-05-18T10:54:12.226Z,17.15
2023-05-18T10:55:12.140Z,17.15
2023-05-18T10:56:12.093Z,17.14
2023-05-18T10:57:12.091Z,17.09
2023-05-18T10:58:12.095Z,17.04
2023-05-18T10:59:12.076Z,17.02
2023-05-18T11:00:12.081Z,17.01
2023-05-18T11:01:12.082Z,17.01
2023-05-18T11:02:12.188Z,17.04
2023-05-18T11:03:12.030Z,17.08
2023-05-18T11:04:12.167Z,17.11
2023-05-18T11:05:12.096Z,17.12
2023-05-18T11:06:12.055Z,17.16
2023-05-18T11:07:11.985Z,17.22
2023-05-18T11:08:11.962Z,17.24
2023-05-18T11:09:11.967Z,17.29
2023-05-18T11:10:11.970Z,17.29
2023-05-18T11:11:11.939Z,17.33
2023-05-18T11:12:11.943Z,17.34
2023-05-18T11:13:11.936Z,17.38
2023-05-18T11:14:11.899Z,17.41
2023-05-18T11:15:11.885Z,17.42
2023-05-18T11:16:11.963Z,17.44
2023-05-18T11:17:11.942Z,17.42
2023-05-18T11:18:11.883Z,17.42
2023-05-18T11:19:11.849Z,17.44
2023-05-18T11:20:11.867Z,17.42
2023-05-18T11:21:11.831Z,17.42
2023-05-18T11:22:11.861Z,17.44
2023-05-18T11:23:12.761Z,17.44
2023-05-18T11:24:13.756Z,17.48
2023-05-18T11:25:11.844Z,17.49
2023-05-18T11:26:11.800Z,17.51
2023-05-18T11:27:11.913Z,17.51
2023-05-18T11:28:13.304Z,17.42
2023-05-18T11:29:11.755Z,17.36
2023-05-18T11:31:11.717Z,17.36
2023-05-18T11:33:11.925Z,17.44
2023-05-18T11:34:11.707Z,17.49
2023-05-18T11:35:11.690Z,17.54
2023-05-18T11:36:13.644Z,17.59
2023-05-18T11:37:11.658Z,17.60
2023-05-18T11:38:11.641Z,17.64
2023-05-18T11:39:11.651Z,17.65
2023-05-18T11:40:11.881Z,17.70
2023-05-18T11:41:13.549Z,17.72
2023-05-18T11:42:11.596Z,17.76
2023-05-18T11:43:11.564Z,17.78
2023-05-18T11:44:11.579Z,17.79
2023-05-18T11:45:11.606Z,17.79
2023-05-18T11:46:11.556Z,17.78
2023-05-18T11:47:11.597Z,17.78
2023-05-18T11:48:11.582Z,17.72
2023-05-18T11:49:11.542Z,17.71
2023-05-18T11:50:11.518Z,17.72
2023-05-18T11:51:11.475Z,17.74
2023-05-18T11:52:11.491Z,17.78
2023-05-18T11:53:11.471Z,17.79
2023-05-18T11:54:11.532Z,17.80
2023-05-18T11:55:11.465Z,17.85
2023-05-18T11:56:11.432Z,17.89
2023-05-18T11:57:11.417Z,17.92
2023-05-18T11:58:11.449Z,17.90
2023-05-18T11:59:13.367Z,17.89
2023-05-18T12:00:11.388Z,17.89
2023-05-18T12:01:11.373Z,17.87
2023-05-18T12:02:11.430Z,17.86
2023-05-18T12:03:11.388Z,17.86
2023-05-18T12:04:11.369Z,17.87
2023-05-18T12:05:11.351Z,17.90
2023-05-18T12:06:11.320Z,17.89
2023-05-18T12:07:11.279Z,17.92
2023-05-18T12:08:11.304Z,17.92
2023-05-18T12:09:11.273Z,17.90
2023-05-18T12:10:11.298Z,17.90
2023-05-18T12:11:11.295Z,17.87
2023-05-18T12:12:11.243Z,17.87
2023-05-18T12:13:11.275Z,17.89
2023-05-18T12:14:11.220Z,17.95
2023-05-18T12:15:11.635Z,17.97
2023-05-18T12:16:11.556Z,18.00
2023-05-18T12:17:11.264Z,18.04
2023-05-18T12:18:11.364Z,18.07
2023-05-18T12:19:11.248Z,18.11
2023-05-18T12:20:11.222Z,18.18
2023-05-18T12:21:11.145Z,18.23
2023-05-18T12:22:11.195Z,18.31
2023-05-18T12:23:11.149Z,18.29
2023-05-18T12:24:11.124Z,18.13
2023-05-18T12:25:11.107Z,18.13
2023-05-18T12:26:13.069Z,18.19
2023-05-18T12:27:11.063Z,18.33
2023-05-18T12:28:11.906Z,18.52
2023-05-18T12:29:11.089Z,18.84
2023-05-18T12:30:13.051Z,19.18
2023-05-18T12:31:11.062Z,19.54
2023-05-18T12:32:11.153Z,19.85
2023-05-18T12:33:11.026Z,20.14
2023-05-18T12:34:10.988Z,20.43
2023-05-18T12:35:10.994Z,20.70
2023-05-18T12:36:10.985Z,20.92
2023-05-18T12:37:10.994Z,21.14
2023-05-18T12:38:10.949Z,21.40
2023-05-18T12:39:10.940Z,21.62
2023-05-18T12:40:10.971Z,21.82
2023-05-18T12:41:10.914Z,21.99
2023-05-18T12:42:10.906Z,22.20
2023-05-18T12:43:10.920Z,22.43
2023-05-18T12:44:10.906Z,22.68
2023-05-18T12:45:11.433Z,22.87
2023-05-18T12:46:10.890Z,23.05
2023-05-18T12:47:10.844Z,23.23
2023-05-18T12:48:10.947Z,23.43
2023-05-18T12:49:10.832Z,23.56
2023-05-18T12:50:11.830Z,23.66
2023-05-18T12:51:10.831Z,23.73
2023-05-18T12:52:10.792Z,23.83
2023-05-18T12:53:10.780Z,23.95
2023-05-18T12:54:10.789Z,23.99
2023-05-18T12:55:10.763Z,24.05
2023-05-18T12:56:10.742Z,24.10
2023-05-18T12:57:10.812Z,24.17
2023-05-18T12:58:10.740Z,24.29
2023-05-18T12:59:10.763Z,24.32
2023-05-18T13:00:10.780Z,24.38
2023-05-18T13:01:12.718Z,24.42
2023-05-18T13:02:10.745Z,24.47
2023-05-18T13:03:14.456Z,24.48
2023-05-18T13:04:10.970Z,24.53
2023-05-18T13:05:10.666Z,24.58
2023-05-18T13:06:10.659Z,24.61